Time;durP1;ratioP1;P1;durP2;ratioP2;P2;SDS_P1;SDS_P2;PMS_P1;PMS_P2;Temp;Humidity;BMP_temperature;BMP_pressure;BME280_temperature;BME280_humidity;BME280_pressure;Samples;Min_cycle;Max_cycle;Signal;HPM_P1;HPM_P2
2022/09/20 00:01:36;;;;;;;10.77;3.60;;;6.10;1.00;;;;;;6291269;22;20017;-88
2022/09/20 00:04:23;;;;;;;18.65;4.30;;;6.10;99.90;;;;;;6281080;22;20008;-89
2022/09/20 00:07:10;;;;;;;13.77;3.92;;;6.20;1.00;;;;;;6301277;22;20021;-89
2022/09/20 00:09:57;;;;;;;15.43;4.45;;;6.20;1.00;;;;;;6294661;22;20062;-89
2022/09/20 00:12:45;;;;;;;13.48;4.13;;;6.30;1.00;;;;;;6267804;22;20019;-90
2022/09/20 00:15:41;;;;;;;11.70;4.40;;;6.40;1.00;;;;;;6289981;22;20038;-91
2022/09/20 00:18:29;;;;;;;8.73;3.88;;;6.40;1.00;;;;;;6283133;22;20106;-90
2022/09/20 00:21:22;;;;;;;15.30;3.80;;;6.40;1.00;;;;;;6259935;22;20047;-92
2022/09/20 00:24:09;;;;;;;12.07;3.63;;;6.30;99.90;;;;;;6257553;22;20020;-89
2022/09/20 00:26:57;;;;;;;11.45;3.80;;;6.30;99.90;;;;;;6259582;22;20024;-89
2022/09/20 00:29:47;;;;;;;5.90;3.53;;;6.20;99.90;;;;;;6270135;22;20039;-91
2022/09/20 00:32:35;;;;;;;9.35;3.78;;;6.20;99.90;;;;;;6268871;22;20038;-91
2022/09/20 00:35:22;;;;;;;9.18;3.70;;;6.10;99.90;;;;;;6287888;22;20046;-91
2022/09/20 00:38:12;;;;;;;9.95;3.72;;;6.00;99.90;;;;;;6261263;22;20031;-89
2022/09/20 00:40:59;;;;;;;10.45;3.42;;;6.00;99.90;;;;;;6259801;22;20308;-91
2022/09/20 00:43:46;;;;;;;7.90;3.33;;;5.90;99.90;;;;;;6281785;22;20024;-89
2022/09/20 00:46:44;;;;;;;14.98;3.50;;;5.90;1.00;;;;;;6288598;22;20049;-91
2022/09/20 00:49:37;;;;;;;11.93;4.30;;;5.90;1.00;;;;;;6272378;22;20062;-89
2022/09/20 00:52:26;;;;;;;13.77;3.78;;;6.00;1.00;;;;;;6294829;22;20023;-91
2022/09/20 00:55:17;;;;;;;6.32;3.60;;;6.00;1.00;;;;;;6300623;22;20112;-86
2022/09/20 00:58:05;;;;;;;12.05;3.40;;;6.00;99.90;;;;;;6302648;22;20032;-91
2022/09/20 01:00:55;;;;;;;12.40;3.67;;;6.00;99.90;;;;;;6292814;22;20027;-92
2022/09/20 01:03:44;;;;;;;15.77;4.13;;;5.90;99.90;;;;;;6270251;22;20084;-89
2022/09/20 01:06:33;;;;;;;8.48;3.42;;;5.90;99.90;;;;;;6291662;22;20030;-91
2022/09/20 01:09:20;;;;;;;9.95;3.67;;;5.80;99.90;;;;;;6270018;22;20044;-90
2022/09/20 01:12:24;;;;;;;10.60;4.15;;;5.80;99.90;;;;;;6293754;22;20050;-90
2022/09/20 01:15:14;;;;;;;11.27;3.92;;;5.70;99.90;;;;;;6262977;22;20111;-90
2022/09/20 01:18:04;;;;;;;12.20;3.53;;;5.70;1.00;;;;;;6257957;22;20030;-90
2022/09/20 01:20:51;;;;;;;10.75;4.28;;;5.70;1.00;;;;;;6278668;22;20023;-89
2022/09/20 01:24:07;;;;;;;10.68;4.13;;;5.60;1.00;;;;;;6280509;22;20046;-90
2022/09/20 01:27:14;;;;;;;15.40;4.85;;;5.50;1.00;;;;;;6257579;22;20053;-91
2022/09/20 01:30:11;;;;;;;17.25;4.65;;;5.50;1.00;;;;;;6279116;22;20038;-89
2022/09/20 01:33:23;;;;;;;17.20;4.25;;;5.50;47.60;;;;;;6257372;22;20103;-91
2022/09/20 01:36:15;;;;;;;;;;;5.60;1.00;;;;;;6278908;22;20111;-91
2022/09/20 01:39:28;;;;;;;13.27;4.35;;;5.80;99.90;;;;;;6258980;22;20236;-91
2022/09/20 01:42:18;;;;;;;;;;;5.90;99.90;;;;;;6258448;22;20058;-89
2022/09/20 01:45:29;;;;;;;11.32;4.53;;;6.00;99.90;;;;;;6260573;22;19925;-90
2022/09/20 01:48:38;;;;;;;13.43;4.07;;;6.10;1.00;;;;;;6281490;22;20028;-91
2022/09/20 01:51:31;;;;;;;10.02;4.38;;;6.20;99.90;;;;;;6256952;22;20027;-92
2022/09/20 01:54:34;;;;;;;12.45;3.80;;;6.30;99.90;;;;;;6257068;22;20062;-90
2022/09/20 01:57:58;;;;;;;12.47;3.93;;;6.30;99.90;;;;;;6278630;22;20028;-89
2022/09/20 02:01:16;;;;;;;14.40;4.35;;;6.40;1.00;;;;;;6258745;22;20375;-91
2022/09/20 02:04:43;;;;;;;8.52;3.50;;;6.30;1.00;;;;;;6257665;22;20465;-90
2022/09/20 02:08:01;;;;;;;8.13;3.60;;;6.30;99.90;;;;;;6260647;22;20031;-90
2022/09/20 02:11:19;;;;;;;10.40;3.67;;;6.20;99.90;;;;;;6258472;22;20019;-90
2022/09/20 02:14:20;;;;;;;15.75;3.95;;;6.10;99.90;;;;;;6277740;22;20028;-89
2022/09/20 02:17:34;;;;;;;9.18;3.33;;;6.00;99.90;;;;;;6257465;22;20106;-89
2022/09/20 02:20:27;;;;;;;20.67;3.83;;;5.90;99.90;;;;;;6278577;22;20038;-90
2022/09/20 02:23:28;;;;;;;12.77;3.83;;;5.80;99.90;;;;;;6279097;22;20023;-91
2022/09/20 02:26:34;;;;;;;10.95;4.03;;;5.70;99.90;;;;;;6288529;22;20042;-91
2022/09/20 02:29:42;;;;;;;12.50;3.40;;;5.60;99.90;;;;;;6288701;22;20478;-92
2022/09/20 02:32:57;;;;;;;11.95;4.00;;;5.50;99.90;;;;;;6279931;22;20034;-89
2022/09/20 02:36:13;;;;;;;12.70;3.97;;;5.50;1.00;;;;;;6256771;22;20034;-88
2022/09/20 02:39:14;;;;;;;10.80;3.83;;;5.40;1.00;;;;;;6277731;22;20027;-90
2022/09/20 02:42:23;;;;;;;12.10;4.40;;;5.50;99.90;;;;;;6257601;22;20023;-91
2022/09/20 02:45:17;;;;;;;14.52;4.32;;;5.50;99.90;;;;;;6277700;22;20027;-90
2022/09/20 02:48:05;;;;;;;13.65;3.90;;;5.50;99.90;;;;;;6280446;22;20028;-91
2022/09/20 02:51:02;;;;;;;11.55;3.90;;;5.40;99.90;;;;;;6256696;22;20080;-91
2022/09/20 02:54:12;;;;;;;15.50;4.70;;;5.30;1.00;;;;;;6258022;22;20024;-92
2022/09/20 02:57:22;;;;;;;10.85;4.20;;;5.10;1.00;;;;;;6277713;22;20042;-90
2022/09/20 03:00:18;;;;;;;15.52;4.47;;;5.00;1.00;;;;;;6258976;22;20090;-90
2022/09/20 03:03:27;;;;;;;14.80;5.00;;;5.00;99.90;;;;;;6257338;22;20023;-90
2022/09/20 03:06:32;;;;;;;5.35;3.67;;;5.00;99.90;;;;;;6261760;22;20103;-90
2022/09/20 03:09:52;;;;;;;14.23;4.40;;;4.90;99.90;;;;;;6260955;22;20023;-90
2022/09/20 03:13:18;;;;;;;11.88;4.70;;;4.90;99.90;;;;;;6284195;22;20027;-91
2022/09/20 03:16:20;;;;;;;11.70;5.10;;;5.10;75.70;;;;;;6244740;22;20028;-91
2022/09/20 03:19:36;;;;;;;12.05;5.13;;;5.10;99.90;;;;;;6282938;22;20027;-90
2022/09/20 03:22:55;;;;;;;7.30;5.20;;;5.10;99.90;;;;;;6283978;22;20043;-90
2022/09/20 03:26:16;;;;;;;22.15;5.63;;;5.10;99.90;;;;;;6216012;22;20075;-90
2022/09/20 03:29:15;;;;;;;13.35;5.60;;;5.10;1.00;;;;;;6289592;22;20047;-89
2022/09/20 03:32:08;;;;;;;20.42;5.78;;;5.20;99.90;;;;;;6262821;22;20023;-89
2022/09/20 03:35:14;;;;;;;12.38;5.72;;;5.30;99.90;;;;;;6283204;22;20024;-87
2022/09/20 03:38:38;;;;;;;16.50;5.72;;;5.30;99.90;;;;;;6262174;22;20079;-90
2022/09/20 03:41:52;;;;;;;17.42;7.07;;;5.40;99.90;;;;;;6281962;22;20046;-91
2022/09/20 03:45:08;;;;;;;8.45;5.20;;;5.40;99.90;;;;;;6283485;22;20020;-90
2022/09/20 03:48:17;;;;;;;21.58;5.45;;;5.30;99.90;;;;;;6264774;22;20023;-92
2022/09/20 03:51:28;;;;;;;10.00;5.35;;;5.40;99.90;;;;;;6283264;22;20067;-91
2022/09/20 03:54:48;;;;;;;12.90;5.65;;;5.40;99.90;;;;;;6282965;22;20039;-90
2022/09/20 03:57:57;;;;;;;18.27;5.63;;;5.40;99.90;;;;;;6258724;22;20023;-90
2022/09/20 04:01:22;;;;;;;17.52;5.38;;;5.50;99.90;;;;;;6258148;22;20055;-89
2022/09/20 04:04:29;;;;;;;16.58;6.43;;;5.50;99.90;;;;;;6279193;22;20020;-91
2022/09/20 04:08:00;;;;;;;18.92;6.93;;;5.70;99.90;;;;;;6278466;22;20019;-90
2022/09/20 04:11:20;;;;;;;11.52;5.43;;;5.80;1.00;;;;;;6260690;22;20403;-90
2022/09/20 04:14:19;;;;;;;13.68;5.50;;;5.80;99.90;;;;;;6258315;22;20335;-91
2022/09/20 04:17:46;;;;;;;9.98;5.35;;;5.90;99.90;;;;;;6258008;22;20050;-89
2022/09/20 04:20:37;;;;;;;14.80;5.68;;;6.00;1.00;;;;;;6245332;22;20045;-89
2022/09/20 04:23:44;;;;;;;9.85;5.22;;;6.10;1.00;;;;;;6256178;22;20035;-89
2022/09/20 04:26:38;;;;;;;13.35;4.88;;;6.10;99.90;;;;;;6258933;22;20023;-90
2022/09/20 04:29:52;;;;;;;20.35;4.72;;;6.20;5.40;;;;;;6278533;22;20034;-91
2022/09/20 04:33:18;;;;;;;9.32;5.00;;;6.20;99.90;;;;;;6256454;22;20023;-85
2022/09/20 04:36:35;;;;;;;13.50;4.68;;;6.20;99.90;;;;;;6277763;22;20028;-85
2022/09/20 04:39:41;;;;;;;15.10;5.47;;;6.20;1.00;;;;;;6278826;22;20024;-85
2022/09/20 04:42:44;;;;;;;11.45;5.00;;;6.20;1.00;;;;;;6279531;22;20041;-86
2022/09/20 04:45:57;;;;;;;;;;;6.20;1.00;;;;;;6277102;22;20031;-85
2022/09/20 04:49:14;;;;;;;8.18;4.75;;;6.20;99.90;;;;;;6281269;22;19925;-89
2022/09/20 04:52:02;;;;;;;16.85;5.15;;;6.30;99.90;;;;;;6277064;22;20019;-91
2022/09/20 04:55:09;;;;;;;13.80;4.57;;;6.20;99.90;;;;;;6277991;22;20356;-91
2022/09/20 04:58:20;;;;;;;11.27;4.30;;;6.20;99.90;;;;;;6256718;22;20070;-90
2022/09/20 05:01:15;;;;;;;15.30;5.30;;;6.20;99.90;;;;;;6279270;22;20498;-91
2022/09/20 05:04:15;;;;;;;9.95;4.60;;;6.20;99.90;;;;;;6280171;22;20034;-89
2022/09/20 05:07:17;;;;;;;16.73;4.75;;;6.20;99.90;;;;;;6275064;22;20027;-87
2022/09/20 05:10:37;;;;;;;13.13;5.18;;;6.30;99.90;;;;;;6279108;22;20024;-86
2022/09/20 05:13:48;;;;;;;12.13;5.15;;;6.30;99.90;;;;;;6276286;22;20020;-86
2022/09/20 05:16:38;;;;;;;12.43;5.15;;;6.30;99.90;;;;;;6275398;22;20027;-85
2022/09/20 05:20:12;;;;;;;12.00;5.47;;;6.40;1.00;;;;;;6277905;22;20057;-86
2022/09/20 05:23:17;;;;;;;13.20;5.97;;;6.40;99.90;;;;;;6277384;22;20055;-86
2022/09/20 05:26:17;;;;;;;13.27;6.93;;;6.40;1.00;;;;;;6281148;22;20169;-88
2022/09/20 05:29:23;;;;;;;18.40;8.88;;;6.50;99.90;;;;;;6277556;22;20411;-87
2022/09/20 05:32:34;;;;;;;20.83;7.70;;;6.60;99.90;;;;;;6281334;22;20103;-85
2022/09/20 05:35:40;;;;;;;20.65;9.23;;;6.50;99.90;;;;;;6256134;22;20027;-86
2022/09/20 05:39:06;;;;;;;13.45;7.60;;;6.60;99.90;;;;;;6278366;22;20035;-84
2022/09/20 05:42:05;;;;;;;17.58;7.60;;;6.70;99.90;;;;;;6244608;22;20098;-85
2022/09/20 05:45:22;;;;;;;21.55;7.80;;;6.60;99.90;;;;;;6283787;22;20019;-83
2022/09/20 05:48:24;;;;;;;21.13;10.20;;;6.50;99.90;;;;;;6248183;22;20034;-84
2022/09/20 05:51:16;;;;;;;22.40;9.77;;;6.60;41.80;;;;;;6283781;22;20023;-87
2022/09/20 05:54:18;;;;;;;20.50;9.60;;;6.50;99.90;;;;;;6281638;22;20059;-87
2022/09/20 05:57:24;;;;;;;17.00;8.73;;;6.50;99.90;;;;;;6278026;22;20082;-90
2022/09/20 06:00:27;;;;;;;22.70;9.40;;;6.50;1.00;;;;;;6280290;22;20051;-90
2022/09/20 06:03:17;;;;;;;17.42;9.05;;;6.50;1.00;;;;;;6278800;22;20038;-90
2022/09/20 06:06:24;;;;;;;21.30;9.38;;;6.50;99.90;;;;;;6259221;22;20028;-90
2022/09/20 06:09:55;;;;;;;161.45;78.50;;;6.50;99.90;;;;;;6260028;22;20031;-90
2022/09/20 06:13:02;;;;;;;30.05;12.05;;;6.60;99.90;;;;;;6279028;22;20023;-89
2022/09/20 06:16:00;;;;;;;24.52;12.07;;;6.60;1.00;;;;;;6259937;22;20146;-90
2022/09/20 06:19:16;;;;;;;17.98;11.18;;;6.70;1.00;;;;;;6259774;22;20023;-91
2022/09/20 06:22:22;;;;;;;22.52;11.02;;;6.90;39.10;;;;;;6241809;22;20027;-89
2022/09/20 06:25:26;;;;;;;26.13;10.93;;;7.10;99.90;;;;;;6281914;22;20423;-90
2022/09/20 06:28:18;;;;;;;28.20;10.52;;;7.30;99.90;;;;;;6282422;22;20054;-89
2022/09/20 06:31:07;;;;;;;28.23;10.30;;;7.50;99.90;;;;;;6290978;22;20024;-89
2022/09/20 06:34:02;;;;;;;22.15;9.98;;;7.60;99.90;;;;;;6293712;22;20051;-89
2022/09/20 06:43:39;;;;;;;19.08;7.82;;;8.30;99.90;;;;;;6278431;22;20039;-87
2022/09/20 06:46:29;;;;;;;19.58;8.15;;;8.40;1.00;;;;;;6285758;22;20045;-86
2022/09/20 06:49:16;;;;;;;13.55;7.60;;;8.40;1.00;;;;;;6280453;22;20019;-87
2022/09/20 06:52:05;;;;;;;19.50;7.03;;;8.50;1.00;;;;;;6285689;22;20024;-84
2022/09/20 06:57:36;;;;;;;21.20;6.72;;;8.70;1.00;;;;;;6205639;22;20023;-79
2022/09/20 07:00:24;;;;;;;25.58;7.00;;;8.80;99.90;;;;;;6266196;22;20024;-80
2022/09/20 07:03:11;;;;;;;18.40;10.07;;;8.90;99.90;;;;;;6230182;22;20024;-81
2022/09/20 07:06:03;;;;;;;19.65;5.90;;;9.00;1.00;;;;;;6234116;23;20031;-81
2022/09/20 07:08:50;;;;;;;12.65;5.70;;;9.20;99.90;;;;;;6245063;23;20165;-81
2022/09/20 07:11:37;;;;;;;20.08;5.88;;;9.30;1.00;;;;;;6245194;23;20319;-83
2022/09/20 07:14:26;;;;;;;15.52;5.03;;;9.40;1.00;;;;;;6246903;23;20023;-83
2022/09/20 07:17:13;;;;;;;11.15;5.07;;;9.60;99.90;;;;;;6245832;23;20077;-82
2022/09/20 07:20:04;;;;;;;16.02;4.53;;;9.70;99.90;;;;;;6247241;23;20109;-84
2022/09/20 07:22:52;;;;;;;12.60;5.00;;;9.80;99.90;;;;;;6245865;23;20020;-84
2022/09/20 07:25:44;;;;;;;15.65;5.28;;;10.00;51.40;;;;;;6245319;23;20097;-84
2022/09/20 07:28:33;;;;;;;12.45;4.78;;;10.00;1.00;;;;;;6245550;23;20102;-83
2022/09/20 07:31:24;;;;;;;11.98;4.35;;;9.90;1.00;;;;;;6247102;23;20027;-84
2022/09/20 07:34:11;;;;;;;11.07;4.43;;;9.80;1.00;;;;;;6225031;23;20039;-83
2022/09/20 07:37:02;;;;;;;9.52;4.32;;;9.90;99.90;;;;;;6248168;23;20106;-83
2022/09/20 07:39:49;;;;;;;9.18;3.70;;;10.10;99.90;;;;;;6223203;23;20154;-86
2022/09/20 07:42:39;;;;;;;16.30;4.20;;;10.50;99.90;;;;;;6244105;23;20028;-82
2022/09/20 07:45:26;;;;;;;11.07;3.67;;;10.60;99.90;;;;;;6245358;23;20110;-84
2022/09/20 07:48:13;;;;;;;15.95;4.22;;;10.70;99.90;;;;;;6246210;23;20035;-83
2022/09/20 07:51:11;;;;;;;15.93;4.85;;;10.80;12.50;;;;;;6244559;23;20028;-83
2022/09/20 07:54:01;;;;;;;13.82;3.92;;;10.80;1.00;;;;;;6245123;23;20028;-83
2022/09/20 07:56:51;;;;;;;12.77;3.72;;;11.00;1.00;;;;;;6245306;23;20440;-85
2022/09/20 07:59:44;;;;;;;13.32;3.58;;;11.30;1.00;;;;;;6247115;23;20078;-85
2022/09/20 08:02:32;;;;;;;12.07;3.05;;;11.60;1.00;;;;;;6250201;23;20024;-84
2022/09/20 08:05:19;;;;;;;8.18;3.47;;;11.70;1.00;;;;;;6278021;22;20020;-83
2022/09/20 08:08:07;;;;;;;15.23;3.35;;;11.80;1.00;;;;;;6257105;22;20073;-83
2022/09/20 08:11:08;;;;;;;12.32;3.03;;;12.10;1.00;;;;;;6255447;22;20024;-83
2022/09/20 08:13:58;;;;;;;11.73;2.55;;;12.80;1.00;;;;;;6275885;22;20038;-84
2022/09/20 08:16:58;;;;;;;7.93;2.33;;;14.10;99.90;;;;;;6276062;22;20314;-84
2022/09/20 08:19:49;;;;;;;11.60;2.22;;;15.50;99.90;;;;;;6277868;22;20335;-84
2022/09/20 08:22:40;;;;;;;7.20;2.25;;;16.30;99.90;;;;;;6276291;22;20046;-84
2022/09/20 08:25:28;;;;;;;10.68;2.00;;;15.80;99.90;;;;;;6278121;22;20030;-84
2022/09/20 08:28:15;;;;;;;12.65;1.90;;;15.70;99.90;;;;;;6278234;22;20415;-84
2022/09/20 08:31:08;;;;;;;7.43;1.50;;;15.40;99.90;;;;;;6278448;22;20093;-84
2022/09/20 08:33:55;;;;;;;12.85;2.00;;;15.10;99.90;;;;;;6276910;22;20371;-85
2022/09/20 08:36:46;;;;;;;7.32;1.80;;;14.80;99.90;;;;;;6257273;22;20387;-84
2022/09/20 08:39:38;;;;;;;9.48;2.53;;;14.40;99.90;;;;;;6281876;22;20097;-84
2022/09/20 08:42:49;;;;;;;6.43;2.10;;;13.80;99.90;;;;;;6283053;22;20087;-85
2022/09/20 08:45:40;;;;;;;6.82;2.00;;;14.00;99.90;;;;;;6270724;22;20055;-86
2022/09/20 08:48:33;;;;;;;8.07;1.98;;;14.70;99.90;;;;;;6281934;22;20301;-84
2022/09/20 08:51:24;;;;;;;9.80;1.85;;;14.30;99.90;;;;;;6280314;22;20031;-84
2022/09/20 08:54:15;;;;;;;6.68;1.67;;;14.00;99.90;;;;;;6281564;22;20019;-85
2022/09/20 08:57:13;;;;;;;9.80;1.90;;;13.90;99.90;;;;;;6255603;22;20019;-85
2022/09/20 09:00:05;;;;;;;9.52;2.05;;;14.20;99.90;;;;;;6278012;22;20094;-86
2022/09/20 09:02:57;;;;;;;8.37;2.33;;;14.50;99.90;;;;;;6279891;22;20070;-86
2022/09/20 09:05:53;;;;;;;10.35;3.03;;;14.80;99.90;;;;;;6279492;22;20026;-86
2022/09/20 09:08:43;;;;;;;13.57;2.92;;;15.30;99.90;;;;;;6278704;22;20035;-87
2022/09/20 09:11:30;;;;;;;10.15;2.50;;;15.40;97.20;;;;;;6282286;22;20155;-89
2022/09/20 09:14:47;;;;;;;7.53;2.15;;;15.80;89.80;;;;;;6256660;22;20028;-86
2022/09/20 09:17:35;;;;;;;12.13;2.03;;;16.30;63.60;;;;;;6258176;22;20394;-86
2022/09/20 09:20:24;;;;;;;8.32;2.40;;;16.00;71.60;;;;;;6280756;22;20110;-87
2022/09/20 09:23:26;;;;;;;8.75;2.50;;;15.80;63.30;;;;;;6258176;22;20027;-83
2022/09/20 09:26:17;;;;;;;8.73;2.40;;;16.00;60.20;;;;;;6278587;22;20023;-83
2022/09/20 09:29:08;;;;;;;9.25;2.00;;;16.00;55.40;;;;;;6279163;22;20306;-81
2022/09/20 09:32:23;;;;;;;10.27;2.00;;;16.20;74.50;;;;;;6255364;22;20030;-82
2022/09/20 09:35:34;;;;;;;6.35;1.85;;;17.20;61.60;;;;;;6256930;22;20406;-84
2022/09/20 09:38:26;;;;;;;6.20;1.80;;;19.00;47.50;;;;;;6277026;22;20107;-85
2022/09/20 09:41:34;;;;;;;4.03;1.50;;;19.90;24.40;;;;;;6259133;22;20094;-84
2022/09/20 09:44:31;;;;;;;6.50;1.73;;;18.20;8.10;;;;;;6277517;22;20080;-86
2022/09/20 09:47:27;;;;;;;6.93;1.80;;;16.70;8.10;;;;;;6280456;22;20034;-84
2022/09/20 09:50:29;;;;;;;7.13;1.90;;;15.80;4.40;;;;;;6277611;22;20054;-83
2022/09/20 09:53:25;;;;;;;11.20;2.25;;;14.90;21.60;;;;;;6277726;22;20430;-85
2022/09/20 09:56:28;;;;;;;7.22;1.95;;;14.40;27.10;;;;;;6255262;22;20024;-81
2022/09/20 09:59:21;;;;;;;6.22;1.95;;;14.10;40.90;;;;;;6277319;22;20061;-83
2022/09/20 10:02:17;;;;;;;7.32;1.60;;;13.80;52.10;;;;;;6277978;22;20051;-83
2022/09/20 10:05:21;;;;;;;8.63;1.90;;;13.70;54.90;;;;;;6277569;22;20024;-82
2022/09/20 10:08:14;;;;;;;;;;;13.40;66.00;;;;;;6281165;22;20684;-82
2022/09/20 10:11:06;;;;;;;10.77;1.90;;;13.30;88.40;;;;;;6280156;22;20306;-83
2022/09/20 10:13:57;;;;;;;9.30;2.05;;;14.20;96.20;;;;;;6237679;22;20107;-82
2022/09/20 10:17:12;;;;;;;7.07;1.70;;;16.30;71.60;;;;;;6255760;22;20418;-83
2022/09/20 10:20:30;;;;;;;12.82;2.63;;;16.80;32.20;;;;;;6277903;22;20024;-86
2022/09/20 10:23:36;;;;;;;4.43;1.23;;;16.80;11.20;;;;;;6279594;22;20082;-86
2022/09/20 10:27:04;;;;;;;8.15;1.50;;;16.30;1.00;;;;;;6261101;22;20024;-87
2022/09/20 10:29:52;;;;;;;6.68;1.40;;;15.60;3.00;;;;;;6277847;22;20125;-84
2022/09/20 10:33:01;;;;;;;6.75;1.60;;;15.50;1.00;;;;;;6281155;22;20618;-85
2022/09/20 10:36:17;;;;;;;9.63;1.95;;;15.60;3.90;;;;;;6278997;22;20034;-85
2022/09/20 10:39:32;;;;;;;8.95;1.50;;;16.60;10.30;;;;;;6279439;22;20083;-85
2022/09/20 10:46:18;;;;;;;9.13;1.33;;;18.00;1.00;;;;;;6282659;22;20023;-89
2022/09/20 10:49:41;;;;;;;6.20;1.60;;;17.30;1.00;;;;;;6276878;22;20401;-88
2022/09/20 10:52:52;;;;;;;7.63;1.70;;;16.40;1.00;;;;;;6280928;22;20035;-88
2022/09/20 10:55:58;;;;;;;4.80;1.25;;;15.70;1.00;;;;;;6282495;22;20038;-89
2022/09/20 10:58:50;;;;;;;9.18;1.90;;;15.10;1.00;;;;;;6279911;22;20498;-82
2022/09/20 11:01:47;;;;;;;;;;;14.90;6.80;;;;;;6255211;22;20378;-85
2022/09/20 11:05:05;;;;;;;4.30;1.63;;;15.10;10.80;;;;;;6280481;22;19915;-86
2022/09/20 11:08:12;;;;;;;5.13;1.48;;;15.70;3.30;;;;;;6279382;22;20024;-82
2022/09/20 11:11:03;;;;;;;7.65;1.58;;;16.60;1.00;;;;;;6278801;22;20030;-83
2022/09/20 11:14:02;;;;;;;5.72;1.60;;;16.20;1.00;;;;;;6280015;22;20106;-82
2022/09/20 11:16:59;;;;;;;9.35;1.70;;;15.10;1.00;;;;;;6278124;22;20093;-84
2022/09/20 11:20:04;;;;;;;7.75;1.40;;;14.40;1.00;;;;;;6279991;22;20028;-82
2022/09/20 11:23:24;;;;;;;5.72;1.83;;;13.80;2.40;;;;;;6275621;22;20027;-84
2022/09/20 11:26:30;;;;;;;4.57;1.70;;;13.70;12.20;;;;;;6277927;22;20030;-85
2022/09/20 11:29:23;;;;;;;5.80;1.92;;;13.60;12.10;;;;;;6290698;22;20012;-84
2022/09/20 11:32:16;;;;;;;8.85;2.08;;;13.60;13.50;;;;;;6256558;22;20111;-84
2022/09/20 11:35:09;;;;;;;5.13;1.70;;;13.80;4.30;;;;;;6291439;22;20024;-85
2022/09/20 11:38:14;;;;;;;15.23;2.55;;;13.90;6.70;;;;;;6291713;22;20051;-84
2022/09/20 11:41:11;;;;;;;7.13;1.80;;;14.20;3.80;;;;;;6291671;22;20038;-85
2022/09/20 11:44:08;;;;;;;5.18;2.42;;;15.10;5.20;;;;;;6291684;22;20028;-86
2022/09/20 11:46:59;;;;;;;5.95;1.30;;;17.10;1.00;;;;;;6288434;22;20094;-86
2022/09/20 11:50:10;;;;;;;7.47;1.42;;;19.10;1.00;;;;;;6279423;22;20099;-87
2022/09/20 11:53:32;;;;;;;7.10;1.33;;;20.70;1.00;;;;;;6278627;22;20027;-86
2022/09/20 11:56:27;;;;;;;3.92;1.63;;;20.70;1.00;;;;;;6280635;22;20031;-87
2022/09/20 11:59:41;;;;;;;6.90;1.43;;;19.70;1.00;;;;;;6278205;22;20024;-86
2022/09/20 12:02:36;;;;;;;5.50;1.50;;;19.00;1.00;;;;;;6277411;22;20094;-87
2022/09/20 12:05:32;;;;;;;7.50;1.63;;;18.30;1.00;;;;;;6278826;22;20077;-87
2022/09/20 12:08:23;;;;;;;3.20;1.52;;;17.00;1.00;;;;;;6279245;22;20055;-86
2022/09/20 12:11:15;;;;;;;5.85;2.10;;;16.60;1.00;;;;;;6282092;22;20358;-89
2022/09/20 12:14:16;;;;;;;5.05;1.70;;;16.40;1.00;;;;;;6262336;22;20085;-87
2022/09/20 12:17:04;;;;;;;4.10;1.40;;;15.90;1.00;;;;;;6279642;22;20098;-85
2022/09/20 12:19:51;;;;;;;6.72;1.88;;;15.70;1.00;;;;;;6258407;22;20023;-86
2022/09/20 12:22:38;;;;;;;8.65;1.90;;;15.60;1.00;;;;;;6258444;22;20038;-87
2022/09/20 12:25:38;;;;;;;9.10;1.83;;;16.10;1.00;;;;;;6278486;22;20015;-85
2022/09/20 12:28:33;;;;;;;7.47;1.58;;;18.50;1.00;;;;;;6281821;22;20099;-86
2022/09/20 12:31:30;;;;;;;5.50;1.33;;;21.70;1.00;;;;;;6280156;22;20047;-86
2022/09/20 12:34:17;;;;;;;3.72;1.30;;;23.20;1.00;;;;;;6278167;22;20030;-82
2022/09/20 12:37:10;;;;;;;4.35;1.48;;;23.00;1.00;;;;;;6278140;22;20102;-83
2022/09/20 12:39:58;;;;;;;6.53;1.60;;;21.00;1.00;;;;;;6278044;22;20111;-83
2022/09/20 12:42:56;;;;;;;4.57;1.17;;;19.40;1.00;;;;;;6277603;22;20023;-84
2022/09/20 12:45:55;;;;;;;5.53;1.45;;;19.00;1.00;;;;;;6277421;22;20423;-83
2022/09/20 12:48:49;;;;;;;4.65;1.20;;;19.30;1.00;;;;;;6276542;22;20028;-85
2022/09/20 12:54:53;;;;;;;6.65;1.10;;;19.40;1.00;;;;;;6278053;22;20361;-85
2022/09/20 12:58:14;;;;;;;5.18;1.23;;;19.30;1.00;;;;;;6280245;22;20016;-87
2022/09/20 13:01:04;;;;;;;4.63;1.20;;;20.20;1.00;;;;;;6238083;22;20047;-87
2022/09/20 13:04:34;;;;;;;2.33;0.85;;;22.70;1.00;;;;;;6277914;22;20028;-86
2022/09/20 13:07:37;;;;;;;1.95;0.70;;;24.50;1.00;;;;;;6280388;22;20031;-87
2022/09/20 13:10:33;;;;;;;4.20;0.88;;;25.40;1.00;;;;;;6281546;22;20019;-85
2022/09/20 13:13:46;;;;;;;3.35;0.90;;;25.20;1.00;;;;;;6274881;22;20043;-86
2022/09/20 13:16:36;;;;;;;5.65;0.90;;;24.10;1.00;;;;;;6276888;22;20035;-85
2022/09/20 13:19:29;;;;;;;3.92;0.90;;;24.90;1.00;;;;;;6301647;22;20015;-82
2022/09/20 13:22:27;;;;;;;2.92;0.90;;;25.20;1.00;;;;;;6298373;22;20095;-88
2022/09/20 13:25:17;;;;;;;3.00;0.80;;;26.60;1.00;;;;;;6301548;22;20012;-87
2022/09/20 13:28:08;;;;;;;2.40;0.77;;;26.90;1.00;;;;;;6279944;22;20019;-86
2022/09/20 13:31:20;;;;;;;8.35;1.25;;;24.90;1.00;;;;;;6280730;22;20034;-86
2022/09/20 13:34:18;;;;;;;5.95;1.15;;;24.50;1.00;;;;;;6277394;22;20011;-84
2022/09/20 13:37:20;;;;;;;3.92;0.95;;;23.90;1.00;;;;;;6269324;22;20352;-88
2022/09/20 13:40:19;;;;;;;3.08;1.00;;;23.20;1.00;;;;;;6285432;22;20027;-87
2022/09/20 13:43:36;;;;;;;4.40;1.10;;;23.40;1.00;;;;;;6258042;22;20058;-89
2022/09/20 13:46:29;;;;;;;3.45;0.90;;;22.70;1.00;;;;;;6278856;22;20117;-90
2022/09/20 13:49:23;;;;;;;4.47;0.90;;;21.50;1.00;;;;;;6281607;22;20079;-87
2022/09/20 13:52:26;;;;;;;3.03;1.02;;;20.50;1.00;;;;;;6282774;22;20038;-88
2022/09/20 13:55:36;;;;;;;4.72;1.17;;;19.70;1.00;;;;;;6279741;22;20034;-87
2022/09/20 13:58:27;;;;;;;4.78;1.65;;;18.90;1.00;;;;;;6280394;22;20115;-89
2022/09/20 14:01:43;;;;;;;2.97;1.27;;;18.20;1.00;;;;;;6280259;22;20074;-87
2022/09/20 14:04:31;;;;;;;4.13;1.35;;;17.80;1.00;;;;;;6280890;22;20024;-87
2022/09/20 14:07:20;;;;;;;6.75;1.50;;;17.50;1.00;;;;;;6282973;22;20077;-86
2022/09/20 14:10:30;;;;;;;6.65;1.60;;;17.20;1.00;;;;;;6283310;22;20030;-87
2022/09/20 14:13:18;;;;;;;2.53;1.30;;;16.90;1.00;;;;;;6280191;22;20028;-85
2022/09/20 14:16:07;;;;;;;6.35;1.50;;;16.90;1.00;;;;;;6279587;22;20031;-86
2022/09/20 14:19:06;;;;;;;5.00;1.38;;;16.80;1.00;;;;;;6260100;22;20296;-86
2022/09/20 14:22:03;;;;;;;4.05;1.08;;;16.60;1.00;;;;;;6259357;22;20493;-85
2022/09/20 14:24:58;;;;;;;8.63;1.42;;;16.40;1.00;;;;;;6277215;22;20170;-85
2022/09/20 14:28:16;;;;;;;7.43;1.63;;;16.00;1.00;;;;;;6280975;22;20019;-87
2022/09/20 14:31:13;;;;;;;6.93;1.50;;;15.50;1.00;;;;;;6281455;22;20020;-83
2022/09/20 14:34:03;;;;;;;8.27;1.23;;;15.20;1.00;;;;;;6261132;22;20051;-86
2022/09/20 14:36:50;;;;;;;3.83;1.38;;;14.70;1.00;;;;;;6279073;22;20016;-83
2022/09/20 14:40:14;;;;;;;8.90;1.52;;;14.50;1.00;;;;;;6281892;22;20046;-86
2022/09/20 14:43:04;;;;;;;5.25;1.02;;;14.20;1.00;;;;;;6258667;22;20023;-85
2022/09/20 14:45:56;;;;;;;9.52;1.48;;;14.10;1.00;;;;;;6278331;22;20031;-84
2022/09/20 14:48:44;;;;;;;7.30;1.90;;;14.00;1.00;;;;;;6280309;22;20027;-86
2022/09/20 14:51:31;;;;;;;4.65;1.20;;;14.00;1.00;;;;;;6281735;22;20034;-84
2022/09/20 14:54:28;;;;;;;4.70;1.38;;;13.90;1.00;;;;;;6281543;22;20027;-82
2022/09/20 14:57:19;;;;;;;4.82;1.13;;;13.80;1.00;;;;;;6278650;22;20111;-85
2022/09/20 15:00:18;;;;;;;8.27;1.58;;;13.70;1.00;;;;;;6279635;22;20051;-81
2022/09/20 15:03:07;;;;;;;6.07;1.50;;;13.70;1.00;;;;;;6279494;22;20095;-85
2022/09/20 15:05:57;;;;;;;6.57;1.92;;;13.70;1.00;;;;;;6279014;22;20051;-83
2022/09/20 15:08:44;;;;;;;4.78;1.63;;;13.80;1.00;;;;;;6280273;22;20073;-90
2022/09/20 15:11:33;;;;;;;7.72;2.83;;;14.00;1.00;;;;;;6286832;22;20034;-91
2022/09/20 15:14:39;;;;;;;7.60;1.90;;;15.00;1.00;;;;;;6281495;22;20020;-91
2022/09/20 15:17:27;;;;;;;5.85;1.27;;;17.20;1.00;;;;;;6262914;22;20442;-88
2022/09/20 15:20:24;;;;;;;6.30;1.75;;;18.80;1.00;;;;;;6285874;22;20023;-89
2022/09/20 15:24:08;;;;;;;;;;;;;;;;;;;;;
2022/09/20 15:27:50;;;;;;;6.15;1.42;;;20.20;1.00;;;;;;6284577;22;20011;-90
2022/09/20 15:35:20;;;;;;;4.45;1.05;;;21.20;1.00;;;;;;6014584;23;20043;-91
2022/09/20 15:39:23;;;;;;;;;;;;;;;;;;;;;
2022/09/20 15:43:02;;;;;;;4.82;1.33;;;21.50;1.00;;;;;;5940349;24;20101;-89
2022/09/20 15:46:23;;;;;;;4.97;1.20;;;19.60;1.00;;;;;;5942250;24;20111;-92
2022/09/20 15:49:39;;;;;;;3.85;1.23;;;18.10;1.00;;;;;;5941303;24;20049;-92
2022/09/20 15:52:35;;;;;;;4.35;1.50;;;16.40;1.00;;;;;;6046597;23;20190;-92
2022/09/20 15:56:01;;;;;;;;;;;;;;;;;;;;;
2022/09/20 15:59:31;;;;;;;6.97;1.40;;;14.80;1.00;;;;;;6042395;23;20031;-93
2022/09/20 16:02:13;;;;;;;3.25;1.50;;;15.80;1.00;;;;;;6063463;23;20481;-89
2022/09/20 16:05:03;;;;;;;5.63;1.67;;;17.20;1.00;;;;;;6141573;23;20028;-91
2022/09/20 16:08:41;;;;;;;6.32;2.53;;;18.10;1.00;;;;;;6145041;23;20022;-90
2022/09/20 16:12:53;;;;;;;;;;;;;;;;;;;;;
2022/09/20 16:16:20;;;;;;;13.48;5.25;;;18.50;1.00;;;;;;6127213;23;20030;-91